MT WASHINGTON (MTW)

Elevation: 920' · LOS ANGELES R basin · Operator: Los Angeles County Fire Dept

Query executed Friday at 1:56:00   clock

Provisional data, subject to change.
Select a sensor type for a plot of data.

Earlier

Date   /   Time   RAIN     TEMP     REL HUM     BAR PRE     FUEL MS     FUEL TP     WIND SP     WIND DR     PEAK WS     PEAK WD     SOLAR R     BAT VOL    
(PDT)INCHES   DEG F   %   INCHES   %   DEG F   MPH   DEG   MPH   DEG   W/M^2   VOLTS  
04/24/2014 02:00 5.00 57 56 -- 11 55 -- -- -- -- 0.00 12.4
04/24/2014 03:00 5.00 57 59 -- 11 54 -- -- -- -- 0.00 12.4
04/24/2014 04:00 5.00 57 56 -- 11 55 -- -- -- -- 0.00 12.4
04/24/2014 05:00 5.00 56 58 -- 11 54 -- -- -- -- 0.00 12.3
04/24/2014 06:00 5.00 55 65 -- 11 54 -- -- -- -- 14.00 12.3
04/24/2014 07:00 5.00 62 53 -- 11 59 -- -- -- -- 157.00 13.6
04/24/2014 08:00 5.00 69 36 -- 11 64 -- -- -- -- 405.00 13.6
04/24/2014 09:00 5.00 74 31 -- 10 79 -- -- -- -- 602.00 13.5
04/24/2014 10:00 5.00 75 29 -- 9 87 -- -- -- -- 765.00 13.5
04/24/2014 11:00 5.00 76 27 -- 8 95 -- -- -- -- 867.00 13.5
04/24/2014 12:00 5.00 79 24 -- 8 97 -- -- -- -- 923.00 13.5
04/24/2014 13:00 5.00 81 27 -- 7 98 -- -- -- -- 911.00 13.4
04/24/2014 14:00 5.00 79 31 -- 7 94 -- -- -- -- 785.00 13.5
04/24/2014 15:00 5.00 77 32 -- 7 87 -- -- -- -- 363.00 13.5
04/24/2014 16:00 5.00 74 30 -- 7 77 -- -- -- -- 442.00 13.5
04/24/2014 17:00 5.00 68 36 -- 7 67 -- -- -- -- 239.00 12.7
04/24/2014 18:00 5.00 63 48 -- 7 63 -- -- -- -- 26.00 12.6
04/24/2014 19:00 5.00 61 49 -- 8 60 -- -- -- -- 8.00 12.5
04/24/2014 20:00 5.00 60 57 -- 8 58 -- -- -- -- 0.00 12.5
04/24/2014 21:00 5.00 59 62 -- 8 58 -- -- -- -- 0.00 12.5
04/24/2014 22:00 5.00 59 67 -- 9 57 -- -- -- -- 0.00 12.5
04/24/2014 23:00 5.00 58 71 -- 9 57 -- -- -- -- 0.00 12.5
04/25/2014 00:00 5.00 57 78 -- 10 56 -- -- -- -- 0.00 12.4
04/25/2014 01:00 5.00 56 86 -- 12 55 -- -- -- -- 0.00 12.4

Later | Latest

Warning! This data is preliminary and subject to revision.

Download Data Now Download Data Now | Show MTW Map | 24 Hours MTW Data | Plot all MTW Sensors | Daily MTW Data | MTW Info